sensor_id;sensor_type;location;lat;lon;timestamp;temperature;humidity
6740;DHT22;3407;49.882;10.920;2022-11-23T00:04:13;4.70;7.90
6740;DHT22;3407;49.882;10.920;2022-11-23T00:09:10;4.60;7.10
6740;DHT22;3407;49.882;10.920;2022-11-23T00:14:05;4.40;7.20
6740;DHT22;3407;49.882;10.920;2022-11-23T00:19:01;4.30;12.50
6740;DHT22;3407;49.882;10.920;2022-11-23T00:23:57;4.10;15.30
6740;DHT22;3407;49.882;10.920;2022-11-23T00:28:53;4.00;19.50
6740;DHT22;3407;49.882;10.920;2022-11-23T00:33:50;3.90;22.10
6740;DHT22;3407;49.882;10.920;2022-11-23T00:38:47;3.80;24.80
6740;DHT22;3407;49.882;10.920;2022-11-23T00:43:43;3.70;26.40
6740;DHT22;3407;49.882;10.920;2022-11-23T00:48:38;3.70;32.80
6740;DHT22;3407;49.882;10.920;2022-11-23T00:53:34;3.80;38.60
6740;DHT22;3407;49.882;10.920;2022-11-23T00:58:31;3.90;41.70
6740;DHT22;3407;49.882;10.920;2022-11-23T01:03:27;4.00;45.20
6740;DHT22;3407;49.882;10.920;2022-11-23T01:08:23;4.10;48.10
6740;DHT22;3407;49.882;10.920;2022-11-23T01:13:18;4.20;47.20
6740;DHT22;3407;49.882;10.920;2022-11-23T01:18:14;4.20;45.40
6740;DHT22;3407;49.882;10.920;2022-11-23T01:23:09;4.20;44.00
6740;DHT22;3407;49.882;10.920;2022-11-23T01:28:05;4.20;44.10
6740;DHT22;3407;49.882;10.920;2022-11-23T01:33:01;4.20;42.10
6740;DHT22;3407;49.882;10.920;2022-11-23T01:37:57;4.10;41.50
6740;DHT22;3407;49.882;10.920;2022-11-23T01:42:56;4.00;37.10
6740;DHT22;3407;49.882;10.920;2022-11-23T01:47:52;3.90;37.70
6740;DHT22;3407;49.882;10.920;2022-11-23T01:52:47;3.80;37.50
6740;DHT22;3407;49.882;10.920;2022-11-23T01:57:43;3.70;39.70
6740;DHT22;3407;49.882;10.920;2022-11-23T02:02:46;3.60;43.30
6740;DHT22;3407;49.882;10.920;2022-11-23T02:07:47;3.70;48.50
6740;DHT22;3407;49.882;10.920;2022-11-23T02:12:44;3.80;49.80
6740;DHT22;3407;49.882;10.920;2022-11-23T02:17:40;3.80;50.10
6740;DHT22;3407;49.882;10.920;2022-11-23T02:27:39;3.80;47.80
6740;DHT22;3407;49.882;10.920;2022-11-23T02:32:37;3.70;44.20
6740;DHT22;3407;49.882;10.920;2022-11-23T02:37:33;3.60;44.00
6740;DHT22;3407;49.882;10.920;2022-11-23T02:42:29;3.60;48.30
6740;DHT22;3407;49.882;10.920;2022-11-23T02:47:25;3.70;50.60
6740;DHT22;3407;49.882;10.920;2022-11-23T02:52:21;3.80;52.40
6740;DHT22;3407;49.882;10.920;2022-11-23T02:57:17;3.90;50.40
6740;DHT22;3407;49.882;10.920;2022-11-23T03:02:12;4.00;49.10
6740;DHT22;3407;49.882;10.920;2022-11-23T03:07:08;4.10;47.60
6740;DHT22;3407;49.882;10.920;2022-11-23T03:12:03;4.10;45.90
6740;DHT22;3407;49.882;10.920;2022-11-23T03:16:59;4.10;46.30
6740;DHT22;3407;49.882;10.920;2022-11-23T03:21:55;4.20;47.10
6740;DHT22;3407;49.882;10.920;2022-11-23T03:26:50;4.30;44.90
6740;DHT22;3407;49.882;10.920;2022-11-23T03:31:46;4.30;43.90
6740;DHT22;3407;49.882;10.920;2022-11-23T03:36:41;4.50;44.30
6740;DHT22;3407;49.882;10.920;2022-11-23T03:41:37;4.50;42.50
6740;DHT22;3407;49.882;10.920;2022-11-23T03:46:32;4.50;38.70
6740;DHT22;3407;49.882;10.920;2022-11-23T03:51:28;4.60;37.80
6740;DHT22;3407;49.882;10.920;2022-11-23T03:56:23;4.70;34.50
6740;DHT22;3407;49.882;10.920;2022-11-23T04:01:19;4.70;33.30
6740;DHT22;3407;49.882;10.920;2022-11-23T04:06:15;4.80;30.20
6740;DHT22;3407;49.882;10.920;2022-11-23T04:11:10;4.90;28.10
6740;DHT22;3407;49.882;10.920;2022-11-23T04:16:06;4.90;22.40
6740;DHT22;3407;49.882;10.920;2022-11-23T04:21:02;4.90;16.80
6740;DHT22;3407;49.882;10.920;2022-11-23T04:25:57;4.90;14.10
6740;DHT22;3407;49.882;10.920;2022-11-23T04:30:53;4.90;13.00
6740;DHT22;3407;49.882;10.920;2022-11-23T04:35:48;5.00;9.30
6740;DHT22;3407;49.882;10.920;2022-11-23T04:40:46;5.00;10.60
6740;DHT22;3407;49.882;10.920;2022-11-23T04:45:42;5.00;9.70
6740;DHT22;3407;49.882;10.920;2022-11-23T04:50:38;5.00;8.10
6740;DHT22;3407;49.882;10.920;2022-11-23T04:55:36;5.00;7.70
6740;DHT22;3407;49.882;10.920;2022-11-23T05:00:31;4.90;6.90
6740;DHT22;3407;49.882;10.920;2022-11-23T05:05:27;4.90;6.90
6740;DHT22;3407;49.882;10.920;2022-11-23T05:10:23;4.90;6.80
6740;DHT22;3407;49.882;10.920;2022-11-23T05:15:18;4.90;6.30
6740;DHT22;3407;49.882;10.920;2022-11-23T05:20:14;4.80;6.90
6740;DHT22;3407;49.882;10.920;2022-11-23T05:25:10;4.80;11.20
6740;DHT22;3407;49.882;10.920;2022-11-23T05:30:06;4.80;15.00
6740;DHT22;3407;49.882;10.920;2022-11-23T05:35:01;4.80;16.20
6740;DHT22;3407;49.882;10.920;2022-11-23T05:39:57;4.90;16.60
6740;DHT22;3407;49.882;10.920;2022-11-23T05:44:53;4.90;16.70
6740;DHT22;3407;49.882;10.920;2022-11-23T05:49:48;4.90;14.80
6740;DHT22;3407;49.882;10.920;2022-11-23T05:54:45;4.90;14.90
6740;DHT22;3407;49.882;10.920;2022-11-23T05:59:40;4.90;14.20
6740;DHT22;3407;49.882;10.920;2022-11-23T06:04:36;4.90;15.50
6740;DHT22;3407;49.882;10.920;2022-11-23T06:09:31;4.90;14.30
6740;DHT22;3407;49.882;10.920;2022-11-23T06:14:27;4.80;15.10
6740;DHT22;3407;49.882;10.920;2022-11-23T06:19:22;4.80;18.10
6740;DHT22;3407;49.882;10.920;2022-11-23T06:24:18;4.90;20.90
6740;DHT22;3407;49.882;10.920;2022-11-23T06:29:13;4.90;19.60
6740;DHT22;3407;49.882;10.920;2022-11-23T06:34:09;4.90;20.60
6740;DHT22;3407;49.882;10.920;2022-11-23T06:39:05;5.00;19.40
6740;DHT22;3407;49.882;10.920;2022-11-23T06:44:00;5.00;16.90
6740;DHT22;3407;49.882;10.920;2022-11-23T06:48:56;5.10;14.40
6740;DHT22;3407;49.882;10.920;2022-11-23T06:53:51;5.10;13.20
6740;DHT22;3407;49.882;10.920;2022-11-23T06:58:47;5.20;11.70
6740;DHT22;3407;49.882;10.920;2022-11-23T07:03:42;5.20;10.50
6740;DHT22;3407;49.882;10.920;2022-11-23T07:08:38;5.20;7.80
6740;DHT22;3407;49.882;10.920;2022-11-23T07:13:38;5.20;10.30
6740;DHT22;3407;49.882;10.920;2022-11-23T07:18:33;5.20;12.80
6740;DHT22;3407;49.882;10.920;2022-11-23T07:23:29;5.20;17.10
6740;DHT22;3407;49.882;10.920;2022-11-23T07:28:24;5.30;18.40
6740;DHT22;3407;49.882;10.920;2022-11-23T07:33:20;5.30;19.00
6740;DHT22;3407;49.882;10.920;2022-11-23T07:38:15;5.40;16.80
6740;DHT22;3407;49.882;10.920;2022-11-23T07:43:11;5.40;13.90
6740;DHT22;3407;49.882;10.920;2022-11-23T07:48:08;5.50;12.80
6740;DHT22;3407;49.882;10.920;2022-11-23T07:53:05;5.60;11.40
6740;DHT22;3407;49.882;10.920;2022-11-23T07:58:01;5.60;10.20
6740;DHT22;3407;49.882;10.920;2022-11-23T08:02:57;5.70;6.30
6740;DHT22;3407;49.882;10.920;2022-11-23T08:07:58;5.80;1.00
6740;DHT22;3407;49.882;10.920;2022-11-23T08:12:56;5.90;1.00
6740;DHT22;3407;49.882;10.920;2022-11-23T08:17:56;5.80;1.00
6740;DHT22;3407;49.882;10.920;2022-11-23T08:22:52;5.90;1.00
6740;DHT22;3407;49.882;10.920;2022-11-23T08:27:56;5.90;1.00
6740;DHT22;3407;49.882;10.920;2022-11-23T08:32:52;6.10;1.00
6740;DHT22;3407;49.882;10.920;2022-11-23T08:37:48;6.20;1.00
6740;DHT22;3407;49.882;10.920;2022-11-23T08:42:45;6.20;1.00
6740;DHT22;3407;49.882;10.920;2022-11-23T08:47:41;6.30;1.00
6740;DHT22;3407;49.882;10.920;2022-11-23T08:52:36;6.50;1.00
6740;DHT22;3407;49.882;10.920;2022-11-23T08:57:32;6.60;1.00
6740;DHT22;3407;49.882;10.920;2022-11-23T09:02:28;6.70;1.00
6740;DHT22;3407;49.882;10.920;2022-11-23T09:07:23;6.90;1.00
6740;DHT22;3407;49.882;10.920;2022-11-23T09:12:19;6.90;1.00
6740;DHT22;3407;49.882;10.920;2022-11-23T09:17:14;7.00;1.00
6740;DHT22;3407;49.882;10.920;2022-11-23T09:22:10;7.10;1.00
6740;DHT22;3407;49.882;10.920;2022-11-23T09:27:05;7.20;1.00
6740;DHT22;3407;49.882;10.920;2022-11-23T09:32:01;7.40;1.00
6740;DHT22;3407;49.882;10.920;2022-11-23T09:36:57;7.50;99.90
6740;DHT22;3407;49.882;10.920;2022-11-23T09:47:22;7.70;99.90
6740;DHT22;3407;49.882;10.920;2022-11-23T09:52:23;7.80;99.90
6740;DHT22;3407;49.882;10.920;2022-11-23T09:57:23;7.90;1.00
6740;DHT22;3407;49.882;10.920;2022-11-23T10:02:22;8.00;1.00
6740;DHT22;3407;49.882;10.920;2022-11-23T10:17:50;8.30;1.00
6740;DHT22;3407;49.882;10.920;2022-11-23T10:22:59;8.50;99.90
6740;DHT22;3407;49.882;10.920;2022-11-23T10:27:59;8.70;99.90
6740;DHT22;3407;49.882;10.920;2022-11-23T10:33:04;8.80;99.90
6740;DHT22;3407;49.882;10.920;2022-11-23T10:38:16;8.90;99.90
6740;DHT22;3407;49.882;10.920;2022-11-23T10:43:16;8.80;99.90
6740;DHT22;3407;49.882;10.920;2022-11-23T10:48:12;8.90;1.00
6740;DHT22;3407;49.882;10.920;2022-11-23T10:53:22;9.00;1.00
6740;DHT22;3407;49.882;10.920;2022-11-23T10:58:31;9.30;1.00
6740;DHT22;3407;49.882;10.920;2022-11-23T11:03:31;9.40;1.00
6740;DHT22;3407;49.882;10.920;2022-11-23T11:08:30;9.60;99.90
6740;DHT22;3407;49.882;10.920;2022-11-23T11:13:45;10.00;99.90
6740;DHT22;3407;49.882;10.920;2022-11-23T11:18:41;10.00;99.90
6740;DHT22;3407;49.882;10.920;2022-11-23T11:23:40;9.90;99.90
6740;DHT22;3407;49.882;10.920;2022-11-23T11:28:40;9.90;99.90
6740;DHT22;3407;49.882;10.920;2022-11-23T11:33:46;9.90;99.90
6740;DHT22;3407;49.882;10.920;2022-11-23T11:38:48;9.90;99.90
6740;DHT22;3407;49.882;10.920;2022-11-23T11:43:49;9.80;99.90
6740;DHT22;3407;49.882;10.920;2022-11-23T11:48:54;9.80;1.00
6740;DHT22;3407;49.882;10.920;2022-11-23T11:54:21;10.00;1.00
6740;DHT22;3407;49.882;10.920;2022-11-23T11:59:38;10.30;99.90
6740;DHT22;3407;49.882;10.920;2022-11-23T12:04:42;10.20;1.00
6740;DHT22;3407;49.882;10.920;2022-11-23T12:09:41;10.20;61.50
6740;DHT22;3407;49.882;10.920;2022-11-23T12:14:39;10.20;1.00
6740;DHT22;3407;49.882;10.920;2022-11-23T12:19:40;10.20;1.00
6740;DHT22;3407;49.882;10.920;2022-11-23T12:35:44;10.40;99.90
6740;DHT22;3407;49.882;10.920;2022-11-23T12:46:00;10.40;99.90
6740;DHT22;3407;49.882;10.920;2022-11-23T13:01:34;11.60;1.00
6740;DHT22;3407;49.882;10.920;2022-11-23T13:21:52;11.30;1.00
6740;DHT22;3407;49.882;10.920;2022-11-23T13:37:29;11.30;1.00
6740;DHT22;3407;49.882;10.920;2022-11-23T13:42:26;11.20;1.00
6740;DHT22;3407;49.882;10.920;2022-11-23T13:47:21;11.30;1.00
6740;DHT22;3407;49.882;10.920;2022-11-23T13:57:16;11.00;1.00
6740;DHT22;3407;49.882;10.920;2022-11-23T14:32:57;9.50;99.90
6740;DHT22;3407;49.882;10.920;2022-11-23T14:38:11;9.20;99.90
6740;DHT22;3407;49.882;10.920;2022-11-23T14:43:13;9.00;1.00
6740;DHT22;3407;49.882;10.920;2022-11-23T14:48:26;8.80;14.30
6740;DHT22;3407;49.882;10.920;2022-11-23T14:53:28;8.60;1.00
6740;DHT22;3407;49.882;10.920;2022-11-23T14:58:27;8.50;99.90
6740;DHT22;3407;49.882;10.920;2022-11-23T15:03:27;8.40;99.90
6740;DHT22;3407;49.882;10.920;2022-11-23T15:08:27;8.20;1.00
6740;DHT22;3407;49.882;10.920;2022-11-23T15:13:31;8.00;1.00
6740;DHT22;3407;49.882;10.920;2022-11-23T15:18:35;7.90;99.90
6740;DHT22;3407;49.882;10.920;2022-11-23T15:23:44;7.70;99.90
6740;DHT22;3407;49.882;10.920;2022-11-23T15:28:40;7.50;1.00
6740;DHT22;3407;49.882;10.920;2022-11-23T15:33:36;7.30;99.90
6740;DHT22;3407;49.882;10.920;2022-11-23T15:38:32;7.10;1.00
6740;DHT22;3407;49.882;10.920;2022-11-23T15:43:27;6.90;99.90
6740;DHT22;3407;49.882;10.920;2022-11-23T15:48:33;6.70;1.00
6740;DHT22;3407;49.882;10.920;2022-11-23T15:53:31;6.50;1.00
6740;DHT22;3407;49.882;10.920;2022-11-23T15:58:28;6.40;1.00
6740;DHT22;3407;49.882;10.920;2022-11-23T16:03:28;6.30;1.00
6740;DHT22;3407;49.882;10.920;2022-11-23T16:08:25;6.20;1.00
6740;DHT22;3407;49.882;10.920;2022-11-23T16:13:37;6.00;1.00
6740;DHT22;3407;49.882;10.920;2022-11-23T16:18:33;5.70;1.00
6740;DHT22;3407;49.882;10.920;2022-11-23T16:23:50;5.70;1.00
6740;DHT22;3407;49.882;10.920;2022-11-23T16:28:52;5.60;1.00
6740;DHT22;3407;49.882;10.920;2022-11-23T16:33:49;5.60;1.00
6740;DHT22;3407;49.882;10.920;2022-11-23T16:38:44;5.60;1.00
6740;DHT22;3407;49.882;10.920;2022-11-23T16:43:39;5.60;1.00
6740;DHT22;3407;49.882;10.920;2022-11-23T16:48:38;5.50;1.00
6740;DHT22;3407;49.882;10.920;2022-11-23T16:53:34;5.40;1.00
6740;DHT22;3407;49.882;10.920;2022-11-23T16:58:33;5.30;1.00
6740;DHT22;3407;49.882;10.920;2022-11-23T17:03:29;5.00;1.00
6740;DHT22;3407;49.882;10.920;2022-11-23T17:08:24;4.90;1.00
6740;DHT22;3407;49.882;10.920;2022-11-23T17:13:21;4.90;1.00
6740;DHT22;3407;49.882;10.920;2022-11-23T17:18:17;4.90;1.00
6740;DHT22;3407;49.882;10.920;2022-11-23T17:23:12;4.90;1.00
6740;DHT22;3407;49.882;10.920;2022-11-23T17:28:16;4.90;1.00
6740;DHT22;3407;49.882;10.920;2022-11-23T17:33:15;5.00;8.70
6740;DHT22;3407;49.882;10.920;2022-11-23T17:38:18;5.00;11.60
6740;DHT22;3407;49.882;10.920;2022-11-23T17:43:18;5.10;15.20
6740;DHT22;3407;49.882;10.920;2022-11-23T17:48:14;5.10;16.80
6740;DHT22;3407;49.882;10.920;2022-11-23T17:53:10;5.10;14.40
6740;DHT22;3407;49.882;10.920;2022-11-23T17:58:06;5.20;12.60
6740;DHT22;3407;49.882;10.920;2022-11-23T18:03:02;5.20;11.40
6740;DHT22;3407;49.882;10.920;2022-11-23T18:07:58;5.10;11.80
6740;DHT22;3407;49.882;10.920;2022-11-23T18:12:53;5.10;9.30
6740;DHT22;3407;49.882;10.920;2022-11-23T18:17:49;5.00;7.40
6740;DHT22;3407;49.882;10.920;2022-11-23T18:22:44;4.90;8.10
6740;DHT22;3407;49.882;10.920;2022-11-23T18:27:40;4.90;10.20
6740;DHT22;3407;49.882;10.920;2022-11-23T18:32:35;4.80;12.40
6740;DHT22;3407;49.882;10.920;2022-11-23T18:37:31;4.80;15.70
6740;DHT22;3407;49.882;10.920;2022-11-23T18:42:26;4.70;14.90
6740;DHT22;3407;49.882;10.920;2022-11-23T18:47:22;4.60;15.10
6740;DHT22;3407;49.882;10.920;2022-11-23T18:52:18;4.40;12.90
6740;DHT22;3407;49.882;10.920;2022-11-23T18:57:14;4.30;13.50
6740;DHT22;3407;49.882;10.920;2022-11-23T19:02:11;4.10;16.80
6740;DHT22;3407;49.882;10.920;2022-11-23T19:07:08;4.10;20.70
6740;DHT22;3407;49.882;10.920;2022-11-23T19:12:03;3.80;16.10
6740;DHT22;3407;49.882;10.920;2022-11-23T19:17:01;3.70;16.40
6740;DHT22;3407;49.882;10.920;2022-11-23T19:21:56;3.50;19.80
6740;DHT22;3407;49.882;10.920;2022-11-23T19:26:52;3.40;21.90
6740;DHT22;3407;49.882;10.920;2022-11-23T19:31:47;3.30;23.00
6740;DHT22;3407;49.882;10.920;2022-11-23T19:36:48;3.20;20.70
6740;DHT22;3407;49.882;10.920;2022-11-23T19:41:44;3.20;23.30
6740;DHT22;3407;49.882;10.920;2022-11-23T19:46:39;3.20;25.00
6740;DHT22;3407;49.882;10.920;2022-11-23T19:51:35;3.10;25.40
6740;DHT22;3407;49.882;10.920;2022-11-23T19:56:30;3.10;27.90
6740;DHT22;3407;49.882;10.920;2022-11-23T20:01:27;3.10;28.30
6740;DHT22;3407;49.882;10.920;2022-11-23T20:06:25;3.10;28.20
6740;DHT22;3407;49.882;10.920;2022-11-23T20:11:22;3.10;31.00
6740;DHT22;3407;49.882;10.920;2022-11-23T20:16:19;3.10;30.90
6740;DHT22;3407;49.882;10.920;2022-11-23T20:21:16;3.20;35.10
6740;DHT22;3407;49.882;10.920;2022-11-23T20:26:14;3.30;35.40
6740;DHT22;3407;49.882;10.920;2022-11-23T20:31:18;3.40;36.20
6740;DHT22;3407;49.882;10.920;2022-11-23T20:36:22;3.50;34.90
6740;DHT22;3407;49.882;10.920;2022-11-23T20:41:26;3.60;36.90
6740;DHT22;3407;49.882;10.920;2022-11-23T20:46:24;3.70;34.30
6740;DHT22;3407;49.882;10.920;2022-11-23T20:51:19;3.80;38.50
6740;DHT22;3407;49.882;10.920;2022-11-23T20:56:15;4.00;42.30
6740;DHT22;3407;49.882;10.920;2022-11-23T21:01:16;4.30;42.90
6740;DHT22;3407;49.882;10.920;2022-11-23T21:06:12;4.50;41.80
6740;DHT22;3407;49.882;10.920;2022-11-23T21:11:25;4.60;44.20
6740;DHT22;3407;49.882;10.920;2022-11-23T21:16:45;4.70;45.70
6740;DHT22;3407;49.882;10.920;2022-11-23T21:21:47;4.70;49.30
6740;DHT22;3407;49.882;10.920;2022-11-23T21:26:43;4.70;54.40
6740;DHT22;3407;49.882;10.920;2022-11-23T21:31:41;4.70;57.30
6740;DHT22;3407;49.882;10.920;2022-11-23T21:36:37;4.60;56.60
6740;DHT22;3407;49.882;10.920;2022-11-23T21:41:37;4.60;60.40
6740;DHT22;3407;49.882;10.920;2022-11-23T21:46:33;4.70;64.30
6740;DHT22;3407;49.882;10.920;2022-11-23T21:51:30;4.70;66.20
6740;DHT22;3407;49.882;10.920;2022-11-23T21:56:26;4.80;69.00
6740;DHT22;3407;49.882;10.920;2022-11-23T22:01:32;4.80;70.60
6740;DHT22;3407;49.882;10.920;2022-11-23T22:06:28;4.80;71.70
6740;DHT22;3407;49.882;10.920;2022-11-23T22:11:28;4.80;71.30
6740;DHT22;3407;49.882;10.920;2022-11-23T22:16:28;4.80;71.90
6740;DHT22;3407;49.882;10.920;2022-11-23T22:21:26;4.80;73.60
6740;DHT22;3407;49.882;10.920;2022-11-23T22:26:21;4.80;73.60
6740;DHT22;3407;49.882;10.920;2022-11-23T22:31:19;4.70;73.80
6740;DHT22;3407;49.882;10.920;2022-11-23T22:36:17;4.80;75.60
6740;DHT22;3407;49.882;10.920;2022-11-23T22:41:16;4.80;77.70
6740;DHT22;3407;49.882;10.920;2022-11-23T22:46:13;4.80;77.10
6740;DHT22;3407;49.882;10.920;2022-11-23T22:51:12;4.80;78.30
6740;DHT22;3407;49.882;10.920;2022-11-23T22:56:19;4.80;79.60
6740;DHT22;3407;49.882;10.920;2022-11-23T23:01:15;4.80;78.40
6740;DHT22;3407;49.882;10.920;2022-11-23T23:06:15;4.80;79.00
6740;DHT22;3407;49.882;10.920;2022-11-23T23:11:13;4.80;79.90
6740;DHT22;3407;49.882;10.920;2022-11-23T23:16:10;4.80;81.50
6740;DHT22;3407;49.882;10.920;2022-11-23T23:21:12;4.90;82.90
6740;DHT22;3407;49.882;10.920;2022-11-23T23:26:09;4.90;82.40
6740;DHT22;3407;49.882;10.920;2022-11-23T23:31:10;4.80;82.70
6740;DHT22;3407;49.882;10.920;2022-11-23T23:36:08;4.90;85.00
6740;DHT22;3407;49.882;10.920;2022-11-23T23:41:06;4.90;84.80
6740;DHT22;3407;49.882;10.920;2022-11-23T23:46:04;4.90;85.80
6740;DHT22;3407;49.882;10.920;2022-11-23T23:51:08;5.00;85.40
6740;DHT22;3407;49.882;10.920;2022-11-23T23:56:14;5.00;86.90
